createdAt,value
2023-02-11T00:01:27.394Z,-2.06
2023-02-11T00:03:55.141Z,-2.12
2023-02-11T00:06:22.568Z,-2.20
2023-02-11T00:08:49.496Z,-2.29
2023-02-11T00:11:18.437Z,-2.37
2023-02-11T00:13:46.722Z,-2.46
2023-02-11T00:16:16.927Z,-2.54
2023-02-11T00:18:44.147Z,-2.61
2023-02-11T00:21:16.504Z,-2.67
2023-02-11T00:23:44.082Z,-2.73
2023-02-11T00:26:21.449Z,-2.77
2023-02-11T00:28:49.944Z,-2.81
2023-02-11T00:31:18.900Z,-2.85
2023-02-11T00:33:46.577Z,-2.86
2023-02-11T00:36:22.911Z,-2.87
2023-02-11T00:38:51.998Z,-2.87
2023-02-11T00:41:20.143Z,-2.86
2023-02-11T00:43:47.706Z,-2.85
2023-02-11T00:46:15.134Z,-2.83
2023-02-11T00:48:42.202Z,-2.82
2023-02-11T00:51:09.961Z,-2.82
2023-02-11T00:53:37.697Z,-2.82
2023-02-11T00:56:05.047Z,-2.82
2023-02-11T00:58:31.769Z,-2.83
2023-02-11T01:00:59.059Z,-2.86
2023-02-11T01:03:26.189Z,-2.90
2023-02-11T01:05:53.443Z,-2.95
2023-02-11T01:08:20.291Z,-2.99
2023-02-11T01:10:55.991Z,-3.03
2023-02-11T01:13:22.975Z,-3.07
2023-02-11T01:15:50.267Z,-3.11
2023-02-11T01:18:17.580Z,-3.15
2023-02-11T01:20:44.632Z,-3.18
2023-02-11T01:23:11.702Z,-3.22
2023-02-11T01:25:38.522Z,-3.25
2023-02-11T01:28:05.725Z,-3.29
2023-02-11T01:30:32.584Z,-3.32
2023-02-11T01:32:59.410Z,-3.33
2023-02-11T01:35:26.113Z,-3.36
2023-02-11T01:37:52.934Z,-3.39
2023-02-11T01:40:19.786Z,-3.40
2023-02-11T01:42:49.404Z,-3.42
2023-02-11T01:45:46.713Z,-3.44
2023-02-11T01:48:18.196Z,-3.47
2023-02-11T01:50:48.417Z,-3.49
2023-02-11T01:53:31.536Z,-3.50
2023-02-11T01:56:13.283Z,-3.49
2023-02-11T01:58:42.496Z,-3.47
2023-02-11T02:01:13.147Z,-3.45
2023-02-11T02:03:43.966Z,-3.42
2023-02-11T02:06:15.474Z,-3.39
2023-02-11T02:08:57.123Z,-3.35
2023-02-11T02:11:23.981Z,-3.30
2023-02-11T02:13:50.910Z,-3.24
2023-02-11T02:16:21.517Z,-3.17
2023-02-11T02:19:03.472Z,-3.10
2023-02-11T02:22:00.120Z,-3.02
2023-02-11T02:24:48.874Z,-2.96
2023-02-11T02:27:29.543Z,-2.92
2023-02-11T02:30:01.963Z,-2.90
2023-02-11T02:32:52.475Z,-2.89
2023-02-11T02:35:57.912Z,-2.87
2023-02-11T02:38:44.218Z,-2.88
2023-02-11T02:41:14.271Z,-2.88
2023-02-11T02:43:45.264Z,-2.87
2023-02-11T02:46:13.160Z,-2.86
2023-02-11T02:48:40.000Z,-2.85
2023-02-11T02:51:29.647Z,-2.82
2023-02-11T02:54:23.819Z,-2.80
2023-02-11T02:57:13.416Z,-2.78
2023-02-11T02:59:53.027Z,-2.75
2023-02-11T03:02:40.515Z,-2.72
2023-02-11T03:05:19.636Z,-2.68
2023-02-11T03:08:00.040Z,-2.66
2023-02-11T03:10:31.713Z,-2.65
2023-02-11T03:12:59.905Z,-2.62
2023-02-11T03:15:30.827Z,-2.58
2023-02-11T03:18:00.747Z,-2.53
2023-02-11T03:20:28.407Z,-2.46
2023-02-11T03:22:57.085Z,-2.40
2023-02-11T03:25:30.506Z,-2.33
2023-02-11T03:28:14.542Z,-2.25
2023-02-11T03:31:09.596Z,-2.16
2023-02-11T03:33:52.122Z,-2.07
2023-02-11T03:36:24.526Z,-1.99
2023-02-11T03:38:56.526Z,-1.91
2023-02-11T03:41:24.997Z,-1.86
2023-02-11T03:43:56.249Z,-1.82
2023-02-11T03:46:37.702Z,-1.80
2023-02-11T03:49:09.824Z,-1.78
2023-02-11T03:51:37.816Z,-1.77
2023-02-11T03:54:10.607Z,-1.77
2023-02-11T03:56:44.173Z,-1.76
2023-02-11T03:59:10.874Z,-1.76
2023-02-11T04:01:37.601Z,-1.75
2023-02-11T04:04:04.673Z,-1.75
2023-02-11T04:06:31.417Z,-1.74
2023-02-11T04:08:58.098Z,-1.73
2023-02-11T04:11:24.955Z,-1.72
2023-02-11T04:13:51.665Z,-1.71
2023-02-11T04:16:18.397Z,-1.70
2023-02-11T04:18:45.218Z,-1.69
2023-02-11T04:21:12.825Z,-1.68
2023-02-11T04:23:39.533Z,-1.67
2023-02-11T04:26:06.786Z,-1.62
2023-02-11T04:28:35.033Z,-1.58
2023-02-11T04:31:02.116Z,-1.53
2023-02-11T04:33:29.362Z,-1.47
2023-02-11T04:35:56.104Z,-1.41
2023-02-11T04:38:24.332Z,-1.35
2023-02-11T04:40:51.704Z,-1.29
2023-02-11T04:43:18.494Z,-1.24
2023-02-11T04:45:45.246Z,-1.20
2023-02-11T04:48:12.016Z,-1.17
2023-02-11T04:50:38.766Z,-1.14
2023-02-11T04:53:05.483Z,-1.13
2023-02-11T04:55:32.285Z,-1.12
2023-02-11T04:57:59.003Z,-1.12
2023-02-11T05:00:25.702Z,-1.12
2023-02-11T05:02:52.406Z,-1.13
2023-02-11T05:05:19.240Z,-1.13
2023-02-11T05:07:46.065Z,-1.14
2023-02-11T05:10:12.709Z,-1.15
2023-02-11T05:12:39.571Z,-1.16
2023-02-11T05:15:06.645Z,-1.17
2023-02-11T05:17:33.628Z,-1.18
2023-02-11T05:20:00.407Z,-1.17
2023-02-11T05:22:27.174Z,-1.15
2023-02-11T05:24:54.421Z,-1.12
2023-02-11T05:27:21.119Z,-1.08
2023-02-11T05:29:47.812Z,-1.03
2023-02-11T05:32:14.659Z,-0.97
2023-02-11T05:34:41.363Z,-0.89
2023-02-11T05:37:08.178Z,-0.82
2023-02-11T05:39:35.295Z,-0.76
2023-02-11T05:42:02.057Z,-0.69
2023-02-11T05:44:28.748Z,-0.63
2023-02-11T05:46:55.505Z,-0.58
2023-02-11T05:49:22.248Z,-0.55
2023-02-11T05:51:49.458Z,-0.52
2023-02-11T05:54:16.904Z,-0.51
2023-02-11T05:56:44.900Z,-0.50
2023-02-11T05:59:14.603Z,-0.49
2023-02-11T06:01:42.087Z,-0.50
2023-02-11T06:04:09.021Z,-0.51
2023-02-11T06:06:35.831Z,-0.53
2023-02-11T06:09:03.152Z,-0.55
2023-02-11T06:11:29.870Z,-0.57
2023-02-11T06:13:56.731Z,-0.59
2023-02-11T06:16:23.537Z,-0.61
2023-02-11T06:18:50.260Z,-0.62
2023-02-11T06:21:17.132Z,-0.63
2023-02-11T06:23:44.144Z,-0.63
2023-02-11T06:26:17.817Z,-0.64
2023-02-11T06:28:44.758Z,-0.65
2023-02-11T06:31:12.353Z,-0.66
2023-02-11T06:33:39.424Z,-0.67
2023-02-11T06:36:14.378Z,-0.68
2023-02-11T06:38:41.226Z,-0.67
2023-02-11T06:41:13.569Z,-0.65
2023-02-11T06:43:41.354Z,-0.61
2023-02-11T06:46:08.433Z,-0.54
2023-02-11T06:48:36.168Z,-0.46
2023-02-11T06:51:05.319Z,-0.38
2023-02-11T06:53:35.547Z,-0.31
2023-02-11T06:56:07.676Z,-0.22
2023-02-11T06:58:34.485Z,-0.14
2023-02-11T07:01:06.814Z,-0.06
2023-02-11T07:03:38.683Z,0.02
2023-02-11T07:06:08.160Z,0.09
2023-02-11T07:08:36.976Z,0.17
2023-02-11T07:11:17.659Z,0.23
2023-02-11T07:13:44.368Z,0.31
2023-02-11T07:16:14.748Z,0.37
2023-02-11T07:18:42.148Z,0.44
2023-02-11T07:21:11.183Z,0.50
2023-02-11T07:23:39.653Z,0.56
2023-02-11T07:26:12.690Z,0.61
2023-02-11T07:28:40.601Z,0.66
2023-02-11T07:31:13.493Z,0.70
2023-02-11T07:33:40.994Z,0.73
2023-02-11T07:36:10.267Z,0.77
2023-02-11T07:38:37.655Z,0.79
2023-02-11T07:41:07.533Z,0.81
2023-02-11T07:43:34.873Z,0.83
2023-02-11T07:46:09.779Z,0.84
2023-02-11T07:48:36.597Z,0.84
2023-02-11T07:51:08.496Z,0.85
2023-02-11T07:53:35.261Z,0.85
2023-02-11T07:56:04.203Z,0.85
2023-02-11T07:58:31.425Z,0.86
2023-02-11T08:01:02.965Z,0.88
2023-02-11T08:03:30.256Z,0.91
2023-02-11T08:05:57.012Z,0.94
2023-02-11T08:08:27.905Z,0.98
2023-02-11T08:10:54.753Z,1.04
2023-02-11T08:13:21.531Z,1.10
2023-02-11T08:15:48.795Z,1.18
2023-02-11T08:18:15.721Z,1.26
2023-02-11T08:20:42.458Z,1.35
2023-02-11T08:23:09.498Z,1.43
2023-02-11T08:25:36.324Z,1.51
2023-02-11T08:28:03.103Z,1.60
2023-02-11T08:30:29.946Z,1.72
2023-02-11T08:32:56.808Z,1.83
2023-02-11T08:35:23.877Z,1.93
2023-02-11T08:37:50.682Z,2.05
2023-02-11T08:40:17.546Z,2.17
2023-02-11T08:42:44.354Z,2.27
2023-02-11T08:45:12.666Z,2.37
2023-02-11T08:47:40.073Z,2.47
2023-02-11T08:50:07.113Z,2.56
2023-02-11T08:52:33.868Z,2.67
2023-02-11T08:55:00.700Z,2.77
2023-02-11T08:57:27.871Z,2.85
2023-02-11T08:59:54.628Z,2.94
2023-02-11T09:02:21.484Z,3.06
2023-02-11T09:04:48.250Z,3.16
2023-02-11T09:07:14.940Z,3.27
2023-02-11T09:09:41.705Z,3.39
2023-02-11T09:12:08.423Z,3.50
2023-02-11T09:14:35.322Z,3.61
2023-02-11T09:17:02.233Z,3.73
2023-02-11T09:19:29.012Z,3.83
2023-02-11T09:21:55.809Z,3.92
2023-02-11T09:24:22.604Z,4.02
2023-02-11T09:26:49.805Z,4.15
2023-02-11T09:29:16.838Z,4.29
2023-02-11T09:31:43.826Z,4.40
2023-02-11T09:34:11.722Z,4.52
2023-02-11T09:36:41.281Z,4.67
2023-02-11T09:39:17.432Z,4.80
2023-02-11T09:42:04.390Z,4.92
2023-02-11T09:44:36.518Z,4.99
2023-02-11T09:47:07.790Z,5.00
2023-02-11T09:49:44.398Z,5.05
2023-02-11T09:52:28.837Z,5.11
2023-02-11T09:54:58.581Z,5.21
2023-02-11T09:57:43.696Z,5.30
2023-02-11T10:00:42.703Z,5.34
2023-02-11T10:03:49.112Z,5.36
2023-02-11T10:06:29.864Z,5.37
2023-02-11T10:09:05.513Z,5.42
2023-02-11T10:11:42.366Z,5.49
2023-02-11T10:14:25.783Z,5.53
2023-02-11T10:17:21.846Z,5.59
2023-02-11T10:20:20.684Z,5.64
2023-02-11T10:22:50.589Z,5.65
2023-02-11T10:25:25.449Z,5.70
2023-02-11T10:27:55.616Z,5.74
2023-02-11T10:30:26.612Z,5.78
2023-02-11T10:33:02.487Z,5.82
2023-02-11T10:35:29.235Z,5.85
2023-02-11T10:37:56.345Z,5.88
2023-02-11T10:40:26.038Z,5.89
2023-02-11T10:42:56.291Z,5.90
2023-02-11T10:45:25.827Z,5.93
2023-02-11T10:47:53.414Z,5.96
2023-02-11T10:50:24.878Z,5.98
2023-02-11T10:52:51.847Z,5.99
2023-02-11T10:55:18.769Z,5.99
2023-02-11T10:57:58.061Z,6.03
2023-02-11T11:00:34.263Z,6.07
2023-02-11T11:03:01.992Z,6.12
2023-02-11T11:05:35.726Z,6.15
2023-02-11T11:08:06.653Z,6.21
2023-02-11T11:10:43.549Z,6.24
2023-02-11T11:13:24.239Z,6.25
2023-02-11T11:16:15.383Z,6.27
2023-02-11T11:18:44.967Z,6.29
2023-02-11T11:21:33.716Z,6.36
2023-02-11T11:24:03.464Z,6.47
2023-02-11T11:26:43.468Z,6.56
2023-02-11T11:29:27.040Z,6.60
2023-02-11T11:31:58.138Z,6.59
2023-02-11T11:34:43.566Z,6.56
2023-02-11T11:37:30.363Z,6.55
2023-02-11T11:40:02.603Z,6.58
2023-02-11T11:42:38.208Z,6.65
2023-02-11T11:45:25.997Z,6.73
2023-02-11T11:48:05.309Z,6.75
2023-02-11T11:50:44.327Z,6.76
2023-02-11T11:53:16.554Z,6.84
2023-02-11T11:55:59.764Z,6.90
2023-02-11T11:58:30.929Z,6.93
2023-02-11T12:00:57.686Z,6.93
2023-02-11T12:03:36.710Z,6.88
2023-02-11T12:06:03.719Z,6.83
2023-02-11T12:08:43.508Z,6.82
2023-02-11T12:11:15.908Z,6.84
2023-02-11T12:13:59.257Z,6.86
2023-02-11T12:16:49.365Z,6.87
2023-02-11T12:19:44.121Z,6.87
2023-02-11T12:22:38.720Z,6.85
2023-02-11T12:25:19.429Z,6.78
2023-02-11T12:28:04.955Z,6.72
2023-02-11T12:30:34.738Z,6.64
2023-02-11T12:33:15.327Z,6.57
2023-02-11T12:35:56.820Z,6.47
2023-02-11T12:38:52.848Z,6.38
2023-02-11T12:41:52.115Z,6.34
2023-02-11T12:44:56.471Z,6.33
2023-02-11T12:47:39.765Z,6.29
2023-02-11T12:50:30.330Z,6.27
2023-02-11T12:53:26.947Z,6.19
2023-02-11T12:56:05.433Z,6.10
2023-02-11T12:58:44.971Z,6.03
2023-02-11T13:01:18.357Z,5.91
2023-02-11T13:04:40.760Z,5.82
2023-02-11T13:07:19.902Z,5.71
2023-02-11T13:09:55.665Z,5.66
2023-02-11T13:12:38.146Z,5.61
2023-02-11T13:15:13.056Z,5.55
2023-02-11T13:18:01.246Z,5.50
2023-02-11T13:20:54.201Z,5.43
2023-02-11T13:23:34.813Z,5.36
2023-02-11T13:26:21.636Z,5.33
2023-02-11T13:29:06.977Z,5.30
2023-02-11T13:31:33.794Z,5.27
2023-02-11T13:34:01.137Z,5.23
2023-02-11T13:36:33.556Z,5.17
2023-02-11T13:39:03.760Z,5.12
2023-02-11T13:41:30.455Z,5.08
2023-02-11T13:44:04.940Z,5.06
2023-02-11T13:46:49.927Z,5.03
2023-02-11T13:49:33.523Z,5.00
2023-02-11T13:52:03.045Z,4.97
2023-02-11T13:54:38.309Z,4.94
2023-02-11T13:57:30.780Z,4.91
2023-02-11T14:00:02.281Z,4.86
2023-02-11T14:02:48.176Z,4.81
2023-02-11T14:05:40.984Z,4.75
2023-02-11T14:08:21.728Z,4.68
2023-02-11T14:10:51.327Z,4.62
2023-02-11T14:13:22.225Z,4.58
2023-02-11T14:15:49.205Z,4.54
2023-02-11T14:18:43.968Z,4.50
2023-02-11T14:21:17.777Z,4.46
2023-02-11T14:23:46.265Z,4.42
2023-02-11T14:26:22.118Z,4.39
2023-02-11T14:29:14.763Z,4.37
2023-02-11T14:31:49.538Z,4.33
2023-02-11T14:34:39.484Z,4.31
2023-02-11T14:37:17.024Z,4.29
2023-02-11T14:39:52.884Z,4.25
2023-02-11T14:42:22.774Z,4.22
2023-02-11T14:44:51.030Z,4.20
2023-02-11T14:47:23.564Z,4.17
2023-02-11T14:49:50.820Z,4.15
2023-02-11T14:52:28.709Z,4.16
2023-02-11T14:55:17.799Z,4.18
2023-02-11T14:57:45.988Z,4.22
2023-02-11T15:00:20.311Z,4.24
2023-02-11T15:02:47.772Z,4.27
2023-02-11T15:05:29.230Z,4.29
2023-02-11T15:08:02.091Z,4.29
2023-02-11T15:10:36.243Z,4.29
2023-02-11T15:13:04.994Z,4.27
2023-02-11T15:15:33.470Z,4.26
2023-02-11T15:18:03.003Z,4.23
2023-02-11T15:20:32.775Z,4.19
2023-02-11T15:23:03.156Z,4.16
2023-02-11T15:25:32.381Z,4.13
2023-02-11T15:28:01.049Z,4.09
2023-02-11T15:30:32.139Z,4.06
2023-02-11T15:33:03.219Z,4.02
2023-02-11T15:35:35.255Z,3.97
2023-02-11T15:38:02.284Z,3.92
2023-02-11T15:40:34.795Z,3.87
2023-02-11T15:43:04.345Z,3.83
2023-02-11T15:45:35.121Z,3.81
2023-02-11T15:48:15.765Z,3.77
2023-02-11T15:50:49.239Z,3.74
2023-02-11T15:53:30.691Z,3.72
2023-02-11T15:56:17.327Z,3.70
2023-02-11T15:58:47.858Z,3.68
2023-02-11T16:01:15.062Z,3.66
2023-02-11T16:03:43.509Z,3.66
2023-02-11T16:06:17.997Z,3.64
2023-02-11T16:08:57.535Z,3.62
2023-02-11T16:11:31.929Z,3.59
2023-02-11T16:14:00.731Z,3.54
2023-02-11T16:16:34.061Z,3.50
2023-02-11T16:19:06.072Z,3.46
2023-02-11T16:21:45.510Z,3.42
2023-02-11T16:24:28.076Z,3.35
2023-02-11T16:27:00.771Z,3.29
2023-02-11T16:29:30.411Z,3.25
2023-02-11T16:32:21.656Z,3.21
2023-02-11T16:34:49.242Z,3.18
2023-02-11T16:37:16.774Z,3.17
2023-02-11T16:39:43.739Z,3.17
2023-02-11T16:42:12.306Z,3.17
2023-02-11T16:44:40.611Z,3.18
2023-02-11T16:47:15.070Z,3.18
2023-02-11T16:49:43.052Z,3.19
2023-02-11T16:52:14.732Z,3.19
2023-02-11T16:54:42.277Z,3.19
2023-02-11T16:57:18.294Z,3.19
2023-02-11T16:59:45.810Z,3.18
2023-02-11T17:02:25.596Z,3.16
2023-02-11T17:04:54.196Z,3.13
2023-02-11T17:07:21.081Z,3.12
2023-02-11T17:09:47.822Z,3.11
2023-02-11T17:12:14.761Z,3.10
2023-02-11T17:14:41.479Z,3.09
2023-02-11T17:17:09.921Z,3.09
2023-02-11T17:19:37.833Z,3.09
2023-02-11T17:22:05.122Z,3.09
2023-02-11T17:24:32.209Z,3.09
2023-02-11T17:26:59.229Z,3.11
2023-02-11T17:29:26.431Z,3.13
2023-02-11T17:31:54.204Z,3.15
2023-02-11T17:34:22.546Z,3.17
2023-02-11T17:36:49.959Z,3.18
2023-02-11T17:39:16.799Z,3.19
2023-02-11T17:41:43.660Z,3.19
2023-02-11T17:44:16.403Z,3.18
2023-02-11T17:46:43.857Z,3.17
2023-02-11T17:49:12.202Z,3.15
2023-02-11T17:51:40.359Z,3.12
2023-02-11T17:54:11.178Z,3.10
2023-02-11T17:56:38.545Z,3.09
2023-02-11T17:59:08.469Z,3.09
2023-02-11T18:01:37.331Z,3.10
2023-02-11T18:04:05.137Z,3.10
2023-02-11T18:06:33.895Z,3.10
2023-02-11T18:09:02.615Z,3.10
2023-02-11T18:11:30.811Z,3.11
2023-02-11T18:14:02.598Z,3.10
2023-02-11T18:16:30.663Z,3.10
2023-02-11T18:18:58.983Z,3.11
2023-02-11T18:21:26.406Z,3.11
2023-02-11T18:23:53.777Z,3.10
2023-02-11T18:26:22.210Z,3.10
2023-02-11T18:28:49.071Z,3.12
2023-02-11T18:31:16.046Z,3.12
2023-02-11T18:33:43.756Z,3.13
2023-02-11T18:36:13.830Z,3.13
2023-02-11T18:38:41.988Z,3.15
2023-02-11T18:41:08.808Z,3.16
2023-02-11T18:43:36.376Z,3.17
2023-02-11T18:46:07.798Z,3.18
2023-02-11T18:48:35.120Z,3.19
2023-02-11T18:51:02.059Z,3.19
2023-02-11T18:53:28.778Z,3.20
2023-02-11T18:55:55.829Z,3.20
2023-02-11T18:58:22.652Z,3.20
2023-02-11T19:00:50.030Z,3.21
2023-02-11T19:03:17.326Z,3.22
2023-02-11T19:05:49.795Z,3.21
2023-02-11T19:08:17.496Z,3.22
2023-02-11T19:10:47.016Z,3.23
2023-02-11T19:13:14.418Z,3.23
2023-02-11T19:15:45.663Z,3.23
2023-02-11T19:18:14.331Z,3.23
2023-02-11T19:20:43.228Z,3.24
2023-02-11T19:23:11.014Z,3.24
2023-02-11T19:25:44.533Z,3.24
2023-02-11T19:28:11.377Z,3.23
2023-02-11T19:30:38.346Z,3.22
2023-02-11T19:33:05.582Z,3.23
2023-02-11T19:35:36.278Z,3.23
2023-02-11T19:38:04.197Z,3.24
2023-02-11T19:40:31.591Z,3.24
2023-02-11T19:42:58.604Z,3.25
2023-02-11T19:45:27.047Z,3.25
2023-02-11T19:47:57.736Z,3.25
2023-02-11T19:50:25.186Z,3.24
2023-02-11T19:52:51.982Z,3.24
2023-02-11T19:55:18.822Z,3.25
2023-02-11T19:57:45.688Z,3.26
2023-02-11T20:00:13.032Z,3.27
2023-02-11T20:02:40.669Z,3.27
2023-02-11T20:05:07.778Z,3.28
2023-02-11T20:07:35.037Z,3.28
2023-02-11T20:10:02.119Z,3.28
2023-02-11T20:12:28.943Z,3.28
2023-02-11T20:14:55.764Z,3.29
2023-02-11T20:17:22.546Z,3.30
2023-02-11T20:19:49.229Z,3.30
2023-02-11T20:22:16.083Z,3.30
2023-02-11T20:24:42.910Z,3.30
2023-02-11T20:27:11.536Z,3.30
2023-02-11T20:29:39.380Z,3.31
2023-02-11T20:32:07.673Z,3.32
2023-02-11T20:34:34.806Z,3.32
2023-02-11T20:37:02.284Z,3.32
2023-02-11T20:39:30.226Z,3.33
2023-02-11T20:41:58.225Z,3.35
2023-02-11T20:44:25.400Z,3.35
2023-02-11T20:46:54.450Z,3.36
2023-02-11T20:49:24.097Z,3.37
2023-02-11T20:51:54.017Z,3.37
2023-02-11T20:54:22.455Z,3.38
2023-02-11T20:56:51.312Z,3.38
2023-02-11T20:59:19.369Z,3.38
2023-02-11T21:01:49.171Z,3.39
2023-02-11T21:04:19.949Z,3.39
2023-02-11T21:06:49.329Z,3.39
2023-02-11T21:09:22.162Z,3.40
2023-02-11T21:11:51.572Z,3.39
2023-02-11T21:14:19.138Z,3.40
2023-02-11T21:16:47.423Z,3.39
2023-02-11T21:19:14.655Z,3.40
2023-02-11T21:21:41.942Z,3.39
2023-02-11T21:24:10.255Z,3.39
2023-02-11T21:26:37.533Z,3.39
2023-02-11T21:29:06.190Z,3.38
2023-02-11T21:31:34.463Z,3.39
2023-02-11T21:34:01.823Z,3.39
2023-02-11T21:36:30.131Z,3.39
2023-02-11T21:38:57.032Z,3.39
2023-02-11T21:41:25.081Z,3.40
2023-02-11T21:43:52.884Z,3.40
2023-02-11T21:46:21.050Z,3.40
2023-02-11T21:48:49.017Z,3.41
2023-02-11T21:51:19.137Z,3.41
2023-02-11T21:53:46.244Z,3.41
2023-02-11T21:56:16.039Z,3.42
2023-02-11T21:58:42.948Z,3.42
2023-02-11T22:01:21.566Z,3.41
2023-02-11T22:03:48.499Z,3.40
2023-02-11T22:06:21.335Z,3.39
2023-02-11T22:08:49.736Z,3.39
2023-02-11T22:11:17.053Z,3.39
2023-02-11T22:13:44.681Z,3.38
2023-02-11T22:16:14.792Z,3.39
2023-02-11T22:18:42.289Z,3.39
2023-02-11T22:21:17.110Z,3.39
2023-02-11T22:23:44.311Z,3.39
2023-02-11T22:26:15.023Z,3.40
2023-02-11T22:28:42.858Z,3.40
2023-02-11T22:31:18.010Z,3.41
2023-02-11T22:33:45.452Z,3.42
2023-02-11T22:36:34.700Z,3.42
2023-02-11T22:39:09.187Z,3.41
2023-02-11T22:41:35.915Z,3.42
2023-02-11T22:44:02.764Z,3.42
2023-02-11T22:46:30.035Z,3.42
2023-02-11T22:48:56.972Z,3.42
2023-02-11T22:51:26.937Z,3.43
2023-02-11T22:53:56.100Z,3.44
2023-02-11T22:56:24.420Z,3.44
2023-02-11T22:58:52.249Z,3.44
2023-02-11T23:01:19.949Z,3.45
2023-02-11T23:03:46.824Z,3.45
2023-02-11T23:06:13.673Z,3.44
2023-02-11T23:08:42.992Z,3.44
2023-02-11T23:11:17.071Z,3.43
2023-02-11T23:13:45.608Z,3.45
2023-02-11T23:16:17.389Z,3.45
2023-02-11T23:18:46.457Z,3.45
2023-02-11T23:21:29.227Z,3.46
2023-02-11T23:23:58.689Z,3.46
2023-02-11T23:26:26.423Z,3.46
2023-02-11T23:28:53.510Z,3.46
2023-02-11T23:31:23.880Z,3.47
2023-02-11T23:33:51.273Z,3.47
2023-02-11T23:36:19.527Z,3.48
2023-02-11T23:38:46.705Z,3.48
2023-02-11T23:41:14.272Z,3.49
2023-02-11T23:43:41.433Z,3.49
2023-02-11T23:46:09.380Z,3.50
2023-02-11T23:48:36.683Z,3.50
2023-02-11T23:51:04.405Z,3.51
2023-02-11T23:53:31.185Z,3.51
2023-02-11T23:55:58.476Z,3.51
2023-02-11T23:58:25.274Z,3.51
